sensor_id;sensor_type;location;lat;lon;timestamp;P1;durP1;ratioP1;P2;durP2;ratioP2
21354;SDS011;10835;50.148;19.760;2023-09-12T00:02:20;10.15;;;7.55;;
21354;SDS011;10835;50.148;19.760;2023-09-12T00:04:48;12.57;;;7.80;;
21354;SDS011;10835;50.148;19.760;2023-09-12T00:07:17;13.23;;;8.13;;
21354;SDS011;10835;50.148;19.760;2023-09-12T00:09:46;11.15;;;7.53;;
21354;SDS011;10835;50.148;19.760;2023-09-12T00:12:14;11.75;;;8.25;;
21354;SDS011;10835;50.148;19.760;2023-09-12T00:14:44;10.70;;;7.13;;
21354;SDS011;10835;50.148;19.760;2023-09-12T00:17:12;11.02;;;8.15;;
21354;SDS011;10835;50.148;19.760;2023-09-12T00:19:42;9.43;;;7.80;;
21354;SDS011;10835;50.148;19.760;2023-09-12T00:22:11;11.93;;;7.65;;
21354;SDS011;10835;50.148;19.760;2023-09-12T00:24:39;12.10;;;8.02;;
21354;SDS011;10835;50.148;19.760;2023-09-12T00:27:08;12.50;;;8.02;;
21354;SDS011;10835;50.148;19.760;2023-09-12T00:29:37;13.48;;;8.75;;
21354;SDS011;10835;50.148;19.760;2023-09-12T00:32:05;12.80;;;8.50;;
21354;SDS011;10835;50.148;19.760;2023-09-12T00:34:34;13.32;;;8.65;;
21354;SDS011;10835;50.148;19.760;2023-09-12T00:37:04;16.20;;;8.93;;
21354;SDS011;10835;50.148;19.760;2023-09-12T00:39:33;10.32;;;7.78;;
21354;SDS011;10835;50.148;19.760;2023-09-12T00:42:02;10.73;;;7.93;;
21354;SDS011;10835;50.148;19.760;2023-09-12T00:44:32;9.48;;;7.18;;
21354;SDS011;10835;50.148;19.760;2023-09-12T00:47:01;10.63;;;7.75;;
21354;SDS011;10835;50.148;19.760;2023-09-12T00:49:30;9.90;;;7.18;;
21354;SDS011;10835;50.148;19.760;2023-09-12T00:52:00;10.57;;;7.93;;
21354;SDS011;10835;50.148;19.760;2023-09-12T00:54:31;13.07;;;8.23;;
21354;SDS011;10835;50.148;19.760;2023-09-12T00:57:00;10.75;;;7.80;;
21354;SDS011;10835;50.148;19.760;2023-09-12T00:59:29;10.38;;;7.78;;
21354;SDS011;10835;50.148;19.760;2023-09-12T01:01:58;13.23;;;7.35;;
21354;SDS011;10835;50.148;19.760;2023-09-12T01:04:27;14.77;;;8.23;;
21354;SDS011;10835;50.148;19.760;2023-09-12T01:07:02;7.10;;;6.35;;
21354;SDS011;10835;50.148;19.760;2023-09-12T01:09:32;10.05;;;7.30;;
21354;SDS011;10835;50.148;19.760;2023-09-12T01:12:01;11.40;;;7.15;;
21354;SDS011;10835;50.148;19.760;2023-09-12T01:14:30;9.45;;;7.15;;
21354;SDS011;10835;50.148;19.760;2023-09-12T01:16:58;10.93;;;8.23;;
21354;SDS011;10835;50.148;19.760;2023-09-12T01:19:29;8.30;;;7.20;;
21354;SDS011;10835;50.148;19.760;2023-09-12T01:28:04;8.93;;;6.25;;
21354;SDS011;10835;50.148;19.760;2023-09-12T01:30:36;11.45;;;7.95;;
21354;SDS011;10835;50.148;19.760;2023-09-12T01:33:07;9.38;;;7.22;;
21354;SDS011;10835;50.148;19.760;2023-09-12T01:35:36;11.95;;;7.93;;
21354;SDS011;10835;50.148;19.760;2023-09-12T01:38:05;10.05;;;8.30;;
21354;SDS011;10835;50.148;19.760;2023-09-12T01:40:37;14.02;;;7.75;;
21354;SDS011;10835;50.148;19.760;2023-09-12T01:43:15;11.48;;;6.65;;
21354;SDS011;10835;50.148;19.760;2023-09-12T01:45:45;9.10;;;6.60;;
21354;SDS011;10835;50.148;19.760;2023-09-12T01:48:18;11.32;;;7.20;;
21354;SDS011;10835;50.148;19.760;2023-09-12T01:50:48;13.88;;;8.82;;
21354;SDS011;10835;50.148;19.760;2023-09-12T01:53:17;13.95;;;8.48;;
21354;SDS011;10835;50.148;19.760;2023-09-12T01:55:49;9.23;;;7.32;;
21354;SDS011;10835;50.148;19.760;2023-09-12T01:58:20;10.70;;;6.72;;
21354;SDS011;10835;50.148;19.760;2023-09-12T02:00:49;14.18;;;8.55;;
21354;SDS011;10835;50.148;19.760;2023-09-12T02:03:17;11.50;;;7.88;;
21354;SDS011;10835;50.148;19.760;2023-09-12T02:05:46;9.23;;;7.05;;
21354;SDS011;10835;50.148;19.760;2023-09-12T02:08:15;9.93;;;7.68;;
21354;SDS011;10835;50.148;19.760;2023-09-12T02:10:43;12.18;;;7.63;;
21354;SDS011;10835;50.148;19.760;2023-09-12T02:13:11;12.63;;;8.05;;
21354;SDS011;10835;50.148;19.760;2023-09-12T02:15:41;10.75;;;7.78;;
21354;SDS011;10835;50.148;19.760;2023-09-12T02:18:10;13.07;;;7.63;;
21354;SDS011;10835;50.148;19.760;2023-09-12T02:20:39;10.00;;;8.23;;
21354;SDS011;10835;50.148;19.760;2023-09-12T02:23:12;14.40;;;7.85;;
21354;SDS011;10835;50.148;19.760;2023-09-12T02:25:40;12.73;;;7.85;;
21354;SDS011;10835;50.148;19.760;2023-09-12T02:28:09;15.50;;;8.50;;
21354;SDS011;10835;50.148;19.760;2023-09-12T02:30:37;13.68;;;8.43;;
21354;SDS011;10835;50.148;19.760;2023-09-12T02:33:08;8.80;;;7.43;;
21354;SDS011;10835;50.148;19.760;2023-09-12T02:35:37;15.05;;;8.23;;
21354;SDS011;10835;50.148;19.760;2023-09-12T02:38:06;9.82;;;6.93;;
21354;SDS011;10835;50.148;19.760;2023-09-12T02:40:35;12.48;;;7.78;;
21354;SDS011;10835;50.148;19.760;2023-09-12T02:43:03;11.63;;;8.20;;
21354;SDS011;10835;50.148;19.760;2023-09-12T02:45:31;10.05;;;8.25;;
21354;SDS011;10835;50.148;19.760;2023-09-12T02:48:00;8.15;;;6.78;;
21354;SDS011;10835;50.148;19.760;2023-09-12T02:50:30;11.85;;;8.07;;
21354;SDS011;10835;50.148;19.760;2023-09-12T02:52:59;9.90;;;6.82;;
21354;SDS011;10835;50.148;19.760;2023-09-12T02:55:27;10.85;;;7.70;;
21354;SDS011;10835;50.148;19.760;2023-09-12T02:57:55;10.40;;;6.95;;
21354;SDS011;10835;50.148;19.760;2023-09-12T03:00:24;13.43;;;7.57;;
21354;SDS011;10835;50.148;19.760;2023-09-12T03:02:52;14.05;;;8.07;;
21354;SDS011;10835;50.148;19.760;2023-09-12T03:05:21;10.07;;;7.28;;
21354;SDS011;10835;50.148;19.760;2023-09-12T03:07:51;14.18;;;8.65;;
21354;SDS011;10835;50.148;19.760;2023-09-12T03:10:19;10.85;;;7.97;;
21354;SDS011;10835;50.148;19.760;2023-09-12T03:12:48;9.93;;;8.07;;
21354;SDS011;10835;50.148;19.760;2023-09-12T03:15:17;11.20;;;7.90;;
21354;SDS011;10835;50.148;19.760;2023-09-12T03:17:46;9.82;;;7.40;;
21354;SDS011;10835;50.148;19.760;2023-09-12T03:20:14;19.05;;;9.23;;
21354;SDS011;10835;50.148;19.760;2023-09-12T03:22:43;11.20;;;7.28;;
21354;SDS011;10835;50.148;19.760;2023-09-12T03:25:13;14.88;;;8.77;;
21354;SDS011;10835;50.148;19.760;2023-09-12T03:27:41;11.82;;;7.82;;
21354;SDS011;10835;50.148;19.760;2023-09-12T03:30:10;9.55;;;7.72;;
21354;SDS011;10835;50.148;19.760;2023-09-12T03:32:39;11.65;;;8.20;;
21354;SDS011;10835;50.148;19.760;2023-09-12T03:35:07;10.27;;;8.23;;
21354;SDS011;10835;50.148;19.760;2023-09-12T03:37:36;11.50;;;8.00;;
21354;SDS011;10835;50.148;19.760;2023-09-12T03:40:07;11.30;;;8.43;;
21354;SDS011;10835;50.148;19.760;2023-09-12T03:42:38;13.90;;;8.80;;
21354;SDS011;10835;50.148;19.760;2023-09-12T03:45:09;10.35;;;8.63;;
21354;SDS011;10835;50.148;19.760;2023-09-12T03:47:39;11.75;;;8.70;;
21354;SDS011;10835;50.148;19.760;2023-09-12T03:50:07;11.45;;;8.38;;
21354;SDS011;10835;50.148;19.760;2023-09-12T03:52:36;12.07;;;8.48;;
21354;SDS011;10835;50.148;19.760;2023-09-12T03:55:04;14.10;;;9.88;;
21354;SDS011;10835;50.148;19.760;2023-09-12T03:57:33;13.13;;;9.05;;
21354;SDS011;10835;50.148;19.760;2023-09-12T04:00:04;11.82;;;8.90;;
21354;SDS011;10835;50.148;19.760;2023-09-12T04:02:39;13.75;;;8.48;;
21354;SDS011;10835;50.148;19.760;2023-09-12T04:05:08;11.45;;;8.38;;
21354;SDS011;10835;50.148;19.760;2023-09-12T04:07:36;12.75;;;8.93;;
21354;SDS011;10835;50.148;19.760;2023-09-12T04:10:05;11.93;;;8.63;;
21354;SDS011;10835;50.148;19.760;2023-09-12T04:12:34;13.93;;;9.10;;
21354;SDS011;10835;50.148;19.760;2023-09-12T04:15:05;14.68;;;8.57;;
21354;SDS011;10835;50.148;19.760;2023-09-12T04:17:34;14.73;;;9.00;;
21354;SDS011;10835;50.148;19.760;2023-09-12T04:20:03;12.73;;;8.95;;
21354;SDS011;10835;50.148;19.760;2023-09-12T04:22:32;13.02;;;8.88;;
21354;SDS011;10835;50.148;19.760;2023-09-12T04:25:01;13.38;;;9.52;;
21354;SDS011;10835;50.148;19.760;2023-09-12T04:27:32;13.90;;;10.02;;
21354;SDS011;10835;50.148;19.760;2023-09-12T04:30:02;12.07;;;8.45;;
21354;SDS011;10835;50.148;19.760;2023-09-12T04:32:33;13.65;;;10.45;;
21354;SDS011;10835;50.148;19.760;2023-09-12T04:35:02;19.35;;;9.55;;
21354;SDS011;10835;50.148;19.760;2023-09-12T04:37:31;14.82;;;9.40;;
21354;SDS011;10835;50.148;19.760;2023-09-12T04:39:59;13.68;;;9.23;;
21354;SDS011;10835;50.148;19.760;2023-09-12T04:42:27;14.15;;;9.45;;
21354;SDS011;10835;50.148;19.760;2023-09-12T04:44:56;13.18;;;10.38;;
21354;SDS011;10835;50.148;19.760;2023-09-12T04:47:25;11.95;;;9.35;;
21354;SDS011;10835;50.148;19.760;2023-09-12T04:49:55;11.15;;;8.65;;
21354;SDS011;10835;50.148;19.760;2023-09-12T04:52:24;9.93;;;7.78;;
21354;SDS011;10835;50.148;19.760;2023-09-12T04:54:52;12.93;;;9.10;;
21354;SDS011;10835;50.148;19.760;2023-09-12T04:57:21;13.38;;;9.57;;
21354;SDS011;10835;50.148;19.760;2023-09-12T04:59:50;12.85;;;9.43;;
21354;SDS011;10835;50.148;19.760;2023-09-12T05:02:19;11.90;;;8.20;;
21354;SDS011;10835;50.148;19.760;2023-09-12T05:04:48;13.00;;;9.90;;
21354;SDS011;10835;50.148;19.760;2023-09-12T05:07:17;13.77;;;10.13;;
21354;SDS011;10835;50.148;19.760;2023-09-12T05:09:46;11.85;;;8.95;;
21354;SDS011;10835;50.148;19.760;2023-09-12T05:12:15;13.63;;;9.48;;
21354;SDS011;10835;50.148;19.760;2023-09-12T05:14:43;15.18;;;10.25;;
21354;SDS011;10835;50.148;19.760;2023-09-12T05:17:11;16.60;;;10.68;;
21354;SDS011;10835;50.148;19.760;2023-09-12T05:19:40;15.55;;;11.45;;
21354;SDS011;10835;50.148;19.760;2023-09-12T05:22:10;15.85;;;11.18;;
21354;SDS011;10835;50.148;19.760;2023-09-12T05:24:40;15.40;;;11.20;;
21354;SDS011;10835;50.148;19.760;2023-09-12T05:27:10;17.60;;;11.98;;
21354;SDS011;10835;50.148;19.760;2023-09-12T05:29:39;17.63;;;12.40;;
21354;SDS011;10835;50.148;19.760;2023-09-12T05:32:08;16.13;;;12.20;;
21354;SDS011;10835;50.148;19.760;2023-09-12T05:34:37;20.05;;;13.65;;
21354;SDS011;10835;50.148;19.760;2023-09-12T05:37:05;20.20;;;14.18;;
21354;SDS011;10835;50.148;19.760;2023-09-12T05:39:34;19.73;;;13.50;;
21354;SDS011;10835;50.148;19.760;2023-09-12T05:42:04;17.50;;;11.70;;
21354;SDS011;10835;50.148;19.760;2023-09-12T05:44:33;19.27;;;12.75;;
21354;SDS011;10835;50.148;19.760;2023-09-12T05:47:05;20.17;;;13.23;;
21354;SDS011;10835;50.148;19.760;2023-09-12T05:49:33;22.17;;;13.57;;
21354;SDS011;10835;50.148;19.760;2023-09-12T05:52:05;59.35;;;35.38;;
21354;SDS011;10835;50.148;19.760;2023-09-12T05:54:33;18.92;;;14.07;;
21354;SDS011;10835;50.148;19.760;2023-09-12T05:57:02;19.17;;;12.57;;
21354;SDS011;10835;50.148;19.760;2023-09-12T05:59:34;18.17;;;11.88;;
21354;SDS011;10835;50.148;19.760;2023-09-12T06:02:04;17.52;;;12.80;;
21354;SDS011;10835;50.148;19.760;2023-09-12T06:04:32;27.02;;;19.33;;
21354;SDS011;10835;50.148;19.760;2023-09-12T06:07:01;26.27;;;18.38;;
21354;SDS011;10835;50.148;19.760;2023-09-12T06:09:30;13.75;;;10.65;;
21354;SDS011;10835;50.148;19.760;2023-09-12T06:11:59;14.70;;;11.07;;
21354;SDS011;10835;50.148;19.760;2023-09-12T06:14:30;15.75;;;11.48;;
21354;SDS011;10835;50.148;19.760;2023-09-12T06:17:00;16.83;;;11.85;;
21354;SDS011;10835;50.148;19.760;2023-09-12T06:19:31;19.05;;;11.93;;
21354;SDS011;10835;50.148;19.760;2023-09-12T06:22:00;17.30;;;11.55;;
21354;SDS011;10835;50.148;19.760;2023-09-12T06:24:29;15.02;;;10.98;;
21354;SDS011;10835;50.148;19.760;2023-09-12T06:26:57;12.63;;;9.32;;
21354;SDS011;10835;50.148;19.760;2023-09-12T06:29:26;15.80;;;11.30;;
21354;SDS011;10835;50.148;19.760;2023-09-12T06:31:54;15.02;;;11.57;;
21354;SDS011;10835;50.148;19.760;2023-09-12T06:34:25;16.27;;;11.20;;
21354;SDS011;10835;50.148;19.760;2023-09-12T06:36:54;14.05;;;9.85;;
21354;SDS011;10835;50.148;19.760;2023-09-12T06:39:22;23.35;;;11.88;;
21354;SDS011;10835;50.148;19.760;2023-09-12T06:41:52;16.83;;;11.95;;
21354;SDS011;10835;50.148;19.760;2023-09-12T06:44:23;16.58;;;11.43;;
21354;SDS011;10835;50.148;19.760;2023-09-12T06:46:51;19.15;;;12.43;;
21354;SDS011;10835;50.148;19.760;2023-09-12T06:49:20;17.98;;;11.05;;
21354;SDS011;10835;50.148;19.760;2023-09-12T06:51:50;18.63;;;10.82;;
21354;SDS011;10835;50.148;19.760;2023-09-12T06:54:18;17.10;;;11.63;;
21354;SDS011;10835;50.148;19.760;2023-09-12T06:56:48;18.35;;;11.13;;
21354;SDS011;10835;50.148;19.760;2023-09-12T06:59:17;17.88;;;11.63;;
21354;SDS011;10835;50.148;19.760;2023-09-12T07:01:45;18.65;;;12.23;;
21354;SDS011;10835;50.148;19.760;2023-09-12T07:04:14;18.45;;;12.50;;
21354;SDS011;10835;50.148;19.760;2023-09-12T07:06:44;14.02;;;10.52;;
21354;SDS011;10835;50.148;19.760;2023-09-12T07:09:14;16.65;;;11.80;;
21354;SDS011;10835;50.148;19.760;2023-09-12T07:11:43;20.13;;;12.02;;
21354;SDS011;10835;50.148;19.760;2023-09-12T07:14:11;14.73;;;10.95;;
21354;SDS011;10835;50.148;19.760;2023-09-12T07:16:40;18.08;;;11.98;;
21354;SDS011;10835;50.148;19.760;2023-09-12T07:19:09;17.48;;;11.57;;
21354;SDS011;10835;50.148;19.760;2023-09-12T07:21:37;16.35;;;11.68;;
21354;SDS011;10835;50.148;19.760;2023-09-12T07:24:06;18.98;;;11.77;;
21354;SDS011;10835;50.148;19.760;2023-09-12T07:26:36;22.30;;;12.88;;
21354;SDS011;10835;50.148;19.760;2023-09-12T07:29:05;19.08;;;11.38;;
21354;SDS011;10835;50.148;19.760;2023-09-12T07:31:33;21.23;;;11.05;;
21354;SDS011;10835;50.148;19.760;2023-09-12T07:34:02;16.55;;;11.40;;
21354;SDS011;10835;50.148;19.760;2023-09-12T07:36:34;14.95;;;11.15;;
21354;SDS011;10835;50.148;19.760;2023-09-12T07:39:03;17.65;;;10.77;;
21354;SDS011;10835;50.148;19.760;2023-09-12T07:41:32;11.75;;;9.00;;
21354;SDS011;10835;50.148;19.760;2023-09-12T07:44:02;14.88;;;9.15;;
21354;SDS011;10835;50.148;19.760;2023-09-12T07:46:31;13.15;;;9.82;;
21354;SDS011;10835;50.148;19.760;2023-09-12T07:49:00;16.52;;;11.02;;
21354;SDS011;10835;50.148;19.760;2023-09-12T07:51:28;16.45;;;11.23;;
21354;SDS011;10835;50.148;19.760;2023-09-12T07:53:57;15.27;;;11.15;;
21354;SDS011;10835;50.148;19.760;2023-09-12T07:56:25;13.68;;;10.73;;
21354;SDS011;10835;50.148;19.760;2023-09-12T07:58:54;13.43;;;9.18;;
21354;SDS011;10835;50.148;19.760;2023-09-12T08:01:24;15.65;;;10.18;;
21354;SDS011;10835;50.148;19.760;2023-09-12T08:03:54;16.60;;;10.30;;
21354;SDS011;10835;50.148;19.760;2023-09-12T08:06:22;19.50;;;10.77;;
21354;SDS011;10835;50.148;19.760;2023-09-12T08:08:52;15.07;;;10.45;;
21354;SDS011;10835;50.148;19.760;2023-09-12T08:11:20;16.08;;;10.88;;
21354;SDS011;10835;50.148;19.760;2023-09-12T08:13:49;13.50;;;9.50;;
21354;SDS011;10835;50.148;19.760;2023-09-12T08:16:18;18.65;;;10.10;;
21354;SDS011;10835;50.148;19.760;2023-09-12T08:18:47;15.77;;;10.30;;
21354;SDS011;10835;50.148;19.760;2023-09-12T08:21:16;12.00;;;9.32;;
21354;SDS011;10835;50.148;19.760;2023-09-12T08:23:45;14.32;;;9.65;;
21354;SDS011;10835;50.148;19.760;2023-09-12T08:26:13;13.05;;;9.45;;
21354;SDS011;10835;50.148;19.760;2023-09-12T08:28:42;11.00;;;7.93;;
21354;SDS011;10835;50.148;19.760;2023-09-12T08:31:13;13.20;;;8.55;;
21354;SDS011;10835;50.148;19.760;2023-09-12T08:33:41;10.23;;;7.90;;
21354;SDS011;10835;50.148;19.760;2023-09-12T08:36:12;15.70;;;9.57;;
21354;SDS011;10835;50.148;19.760;2023-09-12T08:38:40;13.95;;;9.65;;
21354;SDS011;10835;50.148;19.760;2023-09-12T08:41:11;10.55;;;8.20;;
21354;SDS011;10835;50.148;19.760;2023-09-12T08:43:40;13.05;;;9.02;;
21354;SDS011;10835;50.148;19.760;2023-09-12T08:46:09;13.70;;;8.50;;
21354;SDS011;10835;50.148;19.760;2023-09-12T08:48:38;12.25;;;7.88;;
21354;SDS011;10835;50.148;19.760;2023-09-12T08:51:07;9.02;;;6.93;;
21354;SDS011;10835;50.148;19.760;2023-09-12T08:53:40;12.82;;;7.82;;
21354;SDS011;10835;50.148;19.760;2023-09-12T08:56:10;10.45;;;8.77;;
21354;SDS011;10835;50.148;19.760;2023-09-12T08:58:39;13.40;;;8.40;;
21354;SDS011;10835;50.148;19.760;2023-09-12T09:01:10;11.52;;;8.57;;
21354;SDS011;10835;50.148;19.760;2023-09-12T09:03:41;10.98;;;8.25;;
21354;SDS011;10835;50.148;19.760;2023-09-12T09:06:10;9.15;;;7.55;;
21354;SDS011;10835;50.148;19.760;2023-09-12T09:08:41;10.75;;;7.45;;
21354;SDS011;10835;50.148;19.760;2023-09-12T09:11:10;14.48;;;7.60;;
21354;SDS011;10835;50.148;19.760;2023-09-12T09:13:38;12.32;;;7.50;;
21354;SDS011;10835;50.148;19.760;2023-09-12T09:16:12;9.90;;;6.97;;
21354;SDS011;10835;50.148;19.760;2023-09-12T09:18:52;10.85;;;7.85;;
21354;SDS011;10835;50.148;19.760;2023-09-12T09:21:22;8.88;;;6.93;;
21354;SDS011;10835;50.148;19.760;2023-09-12T09:23:53;12.02;;;7.20;;
21354;SDS011;10835;50.148;19.760;2023-09-12T09:26:23;10.70;;;6.72;;
21354;SDS011;10835;50.148;19.760;2023-09-12T09:29:05;10.48;;;7.25;;
21354;SDS011;10835;50.148;19.760;2023-09-12T09:31:35;11.30;;;6.50;;
21354;SDS011;10835;50.148;19.760;2023-09-12T09:34:11;15.63;;;6.90;;
21354;SDS011;10835;50.148;19.760;2023-09-12T09:36:43;11.13;;;6.13;;
21354;SDS011;10835;50.148;19.760;2023-09-12T09:39:16;14.02;;;7.22;;
21354;SDS011;10835;50.148;19.760;2023-09-12T09:41:46;11.60;;;7.03;;
21354;SDS011;10835;50.148;19.760;2023-09-12T09:44:15;11.05;;;6.95;;
21354;SDS011;10835;50.148;19.760;2023-09-12T09:46:44;8.27;;;6.07;;
21354;SDS011;10835;50.148;19.760;2023-09-12T09:49:14;12.38;;;7.30;;
21354;SDS011;10835;50.148;19.760;2023-09-12T09:51:44;10.00;;;6.88;;
21354;SDS011;10835;50.148;19.760;2023-09-12T09:54:13;8.68;;;6.50;;
21354;SDS011;10835;50.148;19.760;2023-09-12T09:56:47;9.77;;;7.45;;
21354;SDS011;10835;50.148;19.760;2023-09-12T09:59:16;12.52;;;7.20;;
21354;SDS011;10835;50.148;19.760;2023-09-12T10:01:46;8.65;;;6.30;;
21354;SDS011;10835;50.148;19.760;2023-09-12T10:04:17;7.38;;;6.38;;
21354;SDS011;10835;50.148;19.760;2023-09-12T10:06:46;9.43;;;6.63;;
21354;SDS011;10835;50.148;19.760;2023-09-12T10:09:15;9.35;;;6.80;;
21354;SDS011;10835;50.148;19.760;2023-09-12T10:11:44;8.75;;;6.45;;
21354;SDS011;10835;50.148;19.760;2023-09-12T10:14:15;8.60;;;6.50;;
21354;SDS011;10835;50.148;19.760;2023-09-12T10:16:49;7.68;;;6.55;;
21354;SDS011;10835;50.148;19.760;2023-09-12T10:19:19;7.78;;;6.10;;
21354;SDS011;10835;50.148;19.760;2023-09-12T10:21:53;9.63;;;6.47;;
21354;SDS011;10835;50.148;19.760;2023-09-12T10:24:30;9.50;;;7.10;;
21354;SDS011;10835;50.148;19.760;2023-09-12T10:27:02;9.98;;;6.55;;
21354;SDS011;10835;50.148;19.760;2023-09-12T10:29:33;8.18;;;6.47;;
21354;SDS011;10835;50.148;19.760;2023-09-12T10:32:03;8.82;;;6.63;;
21354;SDS011;10835;50.148;19.760;2023-09-12T10:34:32;6.85;;;6.13;;
21354;SDS011;10835;50.148;19.760;2023-09-12T10:37:02;7.53;;;6.13;;
21354;SDS011;10835;50.148;19.760;2023-09-12T10:39:32;9.90;;;6.30;;
21354;SDS011;10835;50.148;19.760;2023-09-12T10:42:04;10.07;;;6.50;;
21354;SDS011;10835;50.148;19.760;2023-09-12T10:44:34;7.53;;;6.72;;
21354;SDS011;10835;50.148;19.760;2023-09-12T10:47:03;7.63;;;6.22;;
21354;SDS011;10835;50.148;19.760;2023-09-12T10:49:32;6.75;;;5.90;;
21354;SDS011;10835;50.148;19.760;2023-09-12T10:52:01;7.15;;;6.38;;
21354;SDS011;10835;50.148;19.760;2023-09-12T10:54:37;10.40;;;6.50;;
21354;SDS011;10835;50.148;19.760;2023-09-12T10:57:09;12.43;;;6.72;;
21354;SDS011;10835;50.148;19.760;2023-09-12T11:02:38;11.18;;;6.68;;
21354;SDS011;10835;50.148;19.760;2023-09-12T11:08:04;10.07;;;7.50;;
21354;SDS011;10835;50.148;19.760;2023-09-12T11:10:32;9.90;;;6.53;;
21354;SDS011;10835;50.148;19.760;2023-09-12T11:13:02;7.88;;;6.55;;
21354;SDS011;10835;50.148;19.760;2023-09-12T11:15:31;8.38;;;6.72;;
21354;SDS011;10835;50.148;19.760;2023-09-12T11:18:02;10.95;;;6.07;;
21354;SDS011;10835;50.148;19.760;2023-09-12T11:20:48;9.45;;;7.13;;
21354;SDS011;10835;50.148;19.760;2023-09-12T11:23:19;8.05;;;5.88;;
21354;SDS011;10835;50.148;19.760;2023-09-12T11:25:48;8.70;;;6.53;;
21354;SDS011;10835;50.148;19.760;2023-09-12T11:28:31;8.43;;;6.47;;
21354;SDS011;10835;50.148;19.760;2023-09-12T11:31:00;8.15;;;6.38;;
21354;SDS011;10835;50.148;19.760;2023-09-12T11:33:29;9.27;;;6.85;;
21354;SDS011;10835;50.148;19.760;2023-09-12T11:36:00;8.85;;;7.30;;
21354;SDS011;10835;50.148;19.760;2023-09-12T11:38:37;10.50;;;6.70;;
21354;SDS011;10835;50.148;19.760;2023-09-12T11:41:06;8.52;;;6.80;;
21354;SDS011;10835;50.148;19.760;2023-09-12T11:43:36;10.23;;;6.43;;
21354;SDS011;10835;50.148;19.760;2023-09-12T11:46:06;8.25;;;6.47;;
21354;SDS011;10835;50.148;19.760;2023-09-12T11:48:35;8.38;;;6.70;;
21354;SDS011;10835;50.148;19.760;2023-09-12T11:51:06;8.63;;;6.07;;
21354;SDS011;10835;50.148;19.760;2023-09-12T11:53:35;8.65;;;6.15;;
21354;SDS011;10835;50.148;19.760;2023-09-12T11:56:04;9.63;;;6.13;;
21354;SDS011;10835;50.148;19.760;2023-09-12T11:58:33;7.43;;;6.18;;
21354;SDS011;10835;50.148;19.760;2023-09-12T12:01:04;8.40;;;6.10;;
21354;SDS011;10835;50.148;19.760;2023-09-12T12:03:33;8.40;;;6.45;;
21354;SDS011;10835;50.148;19.760;2023-09-12T12:06:02;7.07;;;6.22;;
21354;SDS011;10835;50.148;19.760;2023-09-12T12:08:33;10.50;;;6.03;;
21354;SDS011;10835;50.148;19.760;2023-09-12T12:11:03;8.55;;;6.07;;
21354;SDS011;10835;50.148;19.760;2023-09-12T12:13:32;9.50;;;5.68;;
21354;SDS011;10835;50.148;19.760;2023-09-12T12:16:02;10.43;;;6.32;;
21354;SDS011;10835;50.148;19.760;2023-09-12T12:18:44;8.02;;;5.88;;
21354;SDS011;10835;50.148;19.760;2023-09-12T12:21:13;9.80;;;5.28;;
21354;SDS011;10835;50.148;19.760;2023-09-12T12:23:42;7.47;;;6.43;;
21354;SDS011;10835;50.148;19.760;2023-09-12T12:26:11;9.77;;;5.85;;
21354;SDS011;10835;50.148;19.760;2023-09-12T12:28:40;8.45;;;5.90;;
21354;SDS011;10835;50.148;19.760;2023-09-12T12:31:09;6.22;;;5.47;;
21354;SDS011;10835;50.148;19.760;2023-09-12T12:33:39;11.07;;;6.13;;
21354;SDS011;10835;50.148;19.760;2023-09-12T12:36:28;6.72;;;5.70;;
21354;SDS011;10835;50.148;19.760;2023-09-12T12:38:59;8.30;;;6.07;;
21354;SDS011;10835;50.148;19.760;2023-09-12T12:41:29;9.50;;;6.03;;
21354;SDS011;10835;50.148;19.760;2023-09-12T12:44:14;8.45;;;6.70;;
21354;SDS011;10835;50.148;19.760;2023-09-12T12:46:50;8.40;;;6.40;;
21354;SDS011;10835;50.148;19.760;2023-09-12T12:49:21;13.52;;;6.97;;
21354;SDS011;10835;50.148;19.760;2023-09-12T12:51:52;7.57;;;6.32;;
21354;SDS011;10835;50.148;19.760;2023-09-12T12:54:24;7.85;;;7.05;;
21354;SDS011;10835;50.148;19.760;2023-09-12T12:56:52;8.15;;;6.43;;
21354;SDS011;10835;50.148;19.760;2023-09-12T12:59:21;8.55;;;6.80;;
21354;SDS011;10835;50.148;19.760;2023-09-12T13:01:50;7.50;;;6.57;;
21354;SDS011;10835;50.148;19.760;2023-09-12T13:04:18;9.50;;;6.72;;
21354;SDS011;10835;50.148;19.760;2023-09-12T13:06:48;8.95;;;6.60;;
21354;SDS011;10835;50.148;19.760;2023-09-12T13:09:17;7.25;;;6.28;;
21354;SDS011;10835;50.148;19.760;2023-09-12T13:11:45;11.02;;;6.95;;
21354;SDS011;10835;50.148;19.760;2023-09-12T13:14:14;7.28;;;6.30;;
21354;SDS011;10835;50.148;19.760;2023-09-12T13:16:45;10.40;;;6.32;;
21354;SDS011;10835;50.148;19.760;2023-09-12T13:19:14;7.70;;;6.90;;
21354;SDS011;10835;50.148;19.760;2023-09-12T13:21:44;8.82;;;6.65;;
21354;SDS011;10835;50.148;19.760;2023-09-12T13:24:12;9.10;;;6.35;;
21354;SDS011;10835;50.148;19.760;2023-09-12T13:26:40;7.55;;;6.30;;
21354;SDS011;10835;50.148;19.760;2023-09-12T13:29:10;7.50;;;6.43;;
21354;SDS011;10835;50.148;19.760;2023-09-12T13:31:39;8.68;;;6.40;;
21354;SDS011;10835;50.148;19.760;2023-09-12T13:34:08;11.57;;;6.47;;
21354;SDS011;10835;50.148;19.760;2023-09-12T13:36:37;10.55;;;6.97;;
21354;SDS011;10835;50.148;19.760;2023-09-12T13:39:06;8.18;;;6.38;;
21354;SDS011;10835;50.148;19.760;2023-09-12T13:41:35;7.43;;;6.18;;
21354;SDS011;10835;50.148;19.760;2023-09-12T13:44:04;10.73;;;6.30;;
21354;SDS011;10835;50.148;19.760;2023-09-12T13:46:32;7.18;;;6.35;;
21354;SDS011;10835;50.148;19.760;2023-09-12T13:49:01;7.88;;;5.90;;
21354;SDS011;10835;50.148;19.760;2023-09-12T13:51:30;9.43;;;6.47;;
21354;SDS011;10835;50.148;19.760;2023-09-12T13:53:59;8.77;;;6.28;;
21354;SDS011;10835;50.148;19.760;2023-09-12T13:56:28;7.03;;;5.38;;
21354;SDS011;10835;50.148;19.760;2023-09-12T13:58:58;7.75;;;5.70;;
21354;SDS011;10835;50.148;19.760;2023-09-12T14:01:28;8.02;;;6.47;;
21354;SDS011;10835;50.148;19.760;2023-09-12T14:04:01;7.93;;;5.38;;
21354;SDS011;10835;50.148;19.760;2023-09-12T14:06:32;7.43;;;6.22;;
21354;SDS011;10835;50.148;19.760;2023-09-12T14:09:02;7.97;;;5.60;;
21354;SDS011;10835;50.148;19.760;2023-09-12T14:11:33;8.05;;;6.18;;
21354;SDS011;10835;50.148;19.760;2023-09-12T14:14:03;8.70;;;6.35;;
21354;SDS011;10835;50.148;19.760;2023-09-12T14:16:34;7.95;;;6.18;;
21354;SDS011;10835;50.148;19.760;2023-09-12T14:19:03;12.05;;;6.72;;
21354;SDS011;10835;50.148;19.760;2023-09-12T14:21:33;7.47;;;6.07;;
21354;SDS011;10835;50.148;19.760;2023-09-12T14:24:02;10.60;;;6.70;;
21354;SDS011;10835;50.148;19.760;2023-09-12T14:26:33;7.72;;;6.32;;
21354;SDS011;10835;50.148;19.760;2023-09-12T14:29:01;14.70;;;6.63;;
21354;SDS011;10835;50.148;19.760;2023-09-12T14:31:32;8.75;;;6.25;;
21354;SDS011;10835;50.148;19.760;2023-09-12T14:34:02;8.15;;;6.25;;
21354;SDS011;10835;50.148;19.760;2023-09-12T14:36:32;8.73;;;6.45;;
21354;SDS011;10835;50.148;19.760;2023-09-12T14:39:00;8.07;;;6.55;;
21354;SDS011;10835;50.148;19.760;2023-09-12T14:41:29;8.50;;;6.68;;
21354;SDS011;10835;50.148;19.760;2023-09-12T14:43:58;13.23;;;6.60;;
21354;SDS011;10835;50.148;19.760;2023-09-12T14:46:27;9.23;;;6.40;;
21354;SDS011;10835;50.148;19.760;2023-09-12T14:48:55;8.95;;;6.53;;
21354;SDS011;10835;50.148;19.760;2023-09-12T14:51:28;9.35;;;6.40;;